Time;durP1;ratioP1;P1;durP2;ratioP2;P2;SDS_P1;SDS_P2;PMS_P1;PMS_P2;Temp;Humidity;BMP_temperature;BMP_pressure;BME280_temperature;BME280_humidity;BME280_pressure;Samples;Min_cycle;Max_cycle;Signal;HPM_P1;HPM_P2
2021/11/19 00:00:07;;;;;;;;;;;;;;;;;;2081954;28;19928;-44
2021/11/19 00:01:08;;;;;;;;;;;;;;;;;;2082518;28;19925;-43
2021/11/19 00:02:09;;;;;;;;;;;;;;;;;;2075465;28;19955;-44
2021/11/19 00:03:10;;;;;;;;;;;;;;;;;;2074429;28;19926;-43
2021/11/19 00:04:11;;;;;;;;;;;;;;;;;;2066193;28;20390;-44
2021/11/19 00:05:11;;;;;;;;;;;;;;;;;;2072307;28;19925;-43
2021/11/19 00:06:12;;;;;;;;;;;;;;;;;;2082388;28;19925;-43
2021/11/19 00:07:13;;;;;;;;;;;;;;;;;;2082268;28;20379;-44
2021/11/19 00:08:14;;;;;;;;;;;;;;;;;;2075345;28;19936;-43
2021/11/19 00:09:15;;;;;;;;;;;;;;;;;;2082525;28;19971;-43
2021/11/19 00:10:15;;;;;;;;;;;;;;;;;;2082431;28;19925;-43
2021/11/19 00:11:16;;;;;;;;;;;;;;;;;;2075259;28;19930;-43
2021/11/19 00:12:17;;;;;;;;;;;;;;;;;;2081599;28;19925;-43
2021/11/19 00:13:18;;;;;;;;;;;;;;;;;;2081722;28;19929;-43
2021/11/19 00:14:19;;;;;;;;;;;;;;;;;;2075965;28;20066;-43
2021/11/19 00:15:20;;;;;;;;;;;;;;;;;;2082444;28;19925;-43
2021/11/19 00:16:20;;;;;;;;;;;;;;;;;;2081175;28;19971;-43
2021/11/19 00:17:21;;;;;;;;;;;;;;;;;;2076601;28;19925;-44
2021/11/19 00:18:22;;;;;;;;;;;;;;;;;;2082406;28;20294;-44
2021/11/19 00:19:24;;;;;;;;;;;;;;;;;;2080532;28;19967;-43
2021/11/19 00:20:28;;;;;;;;;;;;;;;;;;2077722;28;20150;-43
2021/11/19 00:21:29;;;;;;;;;;;;;;;;;;2082752;28;20524;-49
2021/11/19 00:22:30;;;;;;;;;;;;;;;;;;2077869;28;19929;-49
2021/11/19 00:23:30;;;;;;;;;;;;;;;;;;2079716;28;19951;-48
2021/11/19 00:24:31;;;;;;;;;;;;;;;;;;2082444;28;20286;-49
2021/11/19 00:25:32;;;;;;;;;;;;;;;;;;2077860;28;19925;-48
2021/11/19 00:26:33;;;;;;;;;;;;;;;;;;2076327;28;19930;-48
2021/11/19 00:27:34;;;;;;;;;;;;;;;;;;2074044;28;20020;-49
2021/11/19 00:28:35;;;;;;;;;;;;;;;;;;2073346;28;20323;-48
2021/11/19 00:29:36;;;;;;;;;;;;;;;;;;2075619;28;19932;-50
2021/11/19 00:30:37;;;;;;;;;;;;;;;;;;2074188;28;19937;-48
2021/11/19 00:31:37;;;;;;;;;;;;;;;;;;2073173;28;19929;-48
2021/11/19 00:32:38;;;;;;;;;;;;;;;;;;2080711;28;19925;-48
2021/11/19 00:33:39;;;;;;;;;;;;;;;;;;2082196;28;19925;-48
2021/11/19 00:34:40;;;;;;;;;;;;;;;;;;2075415;28;19926;-48
2021/11/19 00:35:41;;;;;;;;;;;;;;;;;;2082042;28;19947;-49
2021/11/19 00:36:41;;;;;;;;;;;;;;;;;;2082187;28;19925;-48
2021/11/19 00:37:42;;;;;;;;;;;;;;;;;;2075492;28;19925;-48
2021/11/19 00:38:43;;;;;;;;;;;;;;;;;;2079951;28;19933;-48
2021/11/19 00:39:44;;;;;;;;;;;;;;;;;;2082310;28;19932;-48
2021/11/19 00:40:45;;;;;;;;;;;;;;;;;;2074065;28;19926;-48
2021/11/19 00:41:46;;;;;;;;;;;;;;;;;;2082193;28;19925;-48
2021/11/19 00:42:46;;;;;;;;;;;;;;;;;;2082274;28;20302;-48
2021/11/19 00:43:47;;;;;;;;;;;;;;;;;;2076146;28;20310;-48
2021/11/19 00:44:48;;;;;;;;;;;;;;;;;;2074131;28;20124;-47
2021/11/19 00:45:49;;;;;;;;;;;;;;;;;;2074006;28;19939;-48
2021/11/19 00:46:50;;;;;;;;;;;;;;;;;;2074431;28;20027;-48
2021/11/19 00:47:51;;;;;;;;;;;;;;;;;;2082109;28;19925;-48
2021/11/19 00:48:51;;;;;;;;;;;;;;;;;;2082138;28;19932;-48
2021/11/19 00:49:52;;;;;;;;;;;;;;;;;;2074832;28;19925;-47
2021/11/19 00:50:53;;;;;;;;;;;;;;;;;;2082340;28;20405;-48
2021/11/19 00:51:54;;;;;;;;;;;;;;;;;;2081340;28;19932;-43
2021/11/19 00:52:55;;;;;;;;;;;;;;;;;;2075257;28;20413;-43
2021/11/19 00:53:56;;;;;;;;;;;;;;;;;;2073878;28;19932;-43
2021/11/19 00:54:57;;;;;;;;;;;;;;;;;;2073460;28;19929;-43
2021/11/19 00:55:58;;;;;;;;;;;;;;;;;;2076768;28;20278;-42
2021/11/19 00:57:00;;;;;;;;;;;;;;;;;;2081976;28;20219;-43
2021/11/19 00:58:00;;;;;;;;;;;;;;;;;;2079091;28;20420;-42
2021/11/19 00:59:01;;;;;;;;;;;;;;;;;;2075855;28;19975;-42
2021/11/19 01:00:02;;;;;;;;;;;;;;;;;;2073871;28;19955;-43
2021/11/19 01:01:03;;;;;;;;;;;;;;;;;;2072185;28;19925;-43
2021/11/19 01:02:04;;;;;;;;;;;;;;;;;;2077430;28;20275;-43
2021/11/19 01:03:05;;;;;;;;;;;;;;;;;;2075453;28;19925;-43
2021/11/19 01:04:06;;;;;;;;;;;;;;;;;;2067400;28;19926;-43
2021/11/19 01:05:06;;;;;;;;;;;;;;;;;;2076183;28;19986;-47
2021/11/19 01:06:07;;;;;;;;;;;;;;;;;;2073912;28;19936;-49
2021/11/19 01:07:08;;;;;;;;;;;;;;;;;;2072599;28;20350;-49
2021/11/19 01:08:09;;;;;;;;;;;;;;;;;;2079503;28;19983;-47
2021/11/19 01:09:10;;;;;;;;;;;;;;;;;;2082195;28;20073;-47
2021/11/19 01:10:11;;;;;;;;;;;;;;;;;;2076657;28;20331;-48
2021/11/19 01:11:12;;;;;;;;;;;;;;;;;;2080198;28;20014;-47
2021/11/19 01:12:13;;;;;;;;;;;;;;;;;;2081842;28;20298;-48
2021/11/19 01:13:14;;;;;;;;;;;;;;;;;;2077379;28;19929;-52
2021/11/19 01:14:17;;;;;;;;;;;;;;;;;;2074185;28;20440;-47
2021/11/19 01:15:18;;;;;;;;;;;;;;;;;;2073775;28;19972;-47
2021/11/19 01:16:19;;;;;;;;;;;;;;;;;;2072776;28;20275;-48
2021/11/19 01:17:20;;;;;;;;;;;;;;;;;;2081741;28;19977;-48
2021/11/19 01:18:21;;;;;;;;;;;;;;;;;;2082035;28;20374;-49
2021/11/19 01:19:21;;;;;;;;;;;;;;;;;;2076041;28;19929;-48
2021/11/19 01:20:22;;;;;;;;;;;;;;;;;;2073688;28;19933;-47
2021/11/19 01:21:23;;;;;;;;;;;;;;;;;;2073825;28;19929;-48
2021/11/19 01:22:24;;;;;;;;;;;;;;;;;;2074552;28;19999;-48
2021/11/19 01:23:25;;;;;;;;;;;;;;;;;;2073628;28;19926;-48
2021/11/19 01:24:26;;;;;;;;;;;;;;;;;;2072847;28;20329;-49
2021/11/19 01:25:26;;;;;;;;;;;;;;;;;;2074443;28;19932;-47
2021/11/19 01:26:27;;;;;;;;;;;;;;;;;;2082033;28;19968;-49
2021/11/19 01:27:28;;;;;;;;;;;;;;;;;;2081031;28;19986;-47
2021/11/19 01:28:29;;;;;;;;;;;;;;;;;;2075492;28;19944;-50
2021/11/19 01:29:30;;;;;;;;;;;;;;;;;;2081919;28;19925;-47
2021/11/19 01:30:31;;;;;;;;;;;;;;;;;;2080578;28;19932;-47
2021/11/19 01:31:31;;;;;;;;;;;;;;;;;;2075100;28;19925;-47
2021/11/19 01:32:32;;;;;;;;;;;;;;;;;;2081735;28;19932;-50
2021/11/19 01:33:33;;;;;;;;;;;;;;;;;;2079947;28;19925;-50
2021/11/19 01:34:34;;;;;;;;;;;;;;;;;;2077121;28;19925;-49
2021/11/19 01:35:35;;;;;;;;;;;;;;;;;;2081833;28;20409;-49
2021/11/19 01:36:36;;;;;;;;;;;;;;;;;;2078855;28;20229;-43
2021/11/19 01:37:37;;;;;;;;;;;;;;;;;;2078185;28;19976;-43
2021/11/19 01:38:40;;;;;;;;;;;;;;;;;;2081969;28;20013;-43
2021/11/19 01:39:41;;;;;;;;;;;;;;;;;;2077284;28;20303;-43
2021/11/19 01:40:42;;;;;;;;;;;;;;;;;;2074631;28;19933;-43
2021/11/19 01:41:43;;;;;;;;;;;;;;;;;;2073597;28;20379;-44
2021/11/19 01:42:44;;;;;;;;;;;;;;;;;;2072525;28;19925;-42
2021/11/19 01:43:44;;;;;;;;;;;;;;;;;;2079409;28;19932;-43
2021/11/19 01:44:45;;;;;;;;;;;;;;;;;;2081886;28;20580;-43
2021/11/19 01:45:46;;;;;;;;;;;;;;;;;;2077327;28;19934;-43
2021/11/19 01:46:47;;;;;;;;;;;;;;;;;;2074737;28;20049;-42
2021/11/19 01:47:48;;;;;;;;;;;;;;;;;;2073506;28;19952;-43
2021/11/19 01:48:48;;;;;;;;;;;;;;;;;;2072374;28;19973;-43
2021/11/19 01:49:49;;;;;;;;;;;;;;;;;;2080676;28;19929;-43
2021/11/19 01:50:50;;;;;;;;;;;;;;;;;;2081775;28;19932;-44
2021/11/19 01:51:51;;;;;;;;;;;;;;;;;;2076833;28;19972;-44
2021/11/19 01:52:52;;;;;;;;;;;;;;;;;;2073592;28;19926;-43
2021/11/19 01:53:53;;;;;;;;;;;;;;;;;;2073826;28;19925;-48
2021/11/19 01:54:54;;;;;;;;;;;;;;;;;;2074539;28;19925;-49
2021/11/19 01:55:55;;;;;;;;;;;;;;;;;;2073562;28;19965;-49
2021/11/19 01:56:56;;;;;;;;;;;;;;;;;;2073473;28;19948;-48
2021/11/19 01:57:57;;;;;;;;;;;;;;;;;;2074321;28;19925;-48
2021/11/19 01:58:58;;;;;;;;;;;;;;;;;;2073542;28;19929;-49
2021/11/19 01:59:58;;;;;;;;;;;;;;;;;;2073587;28;19980;-49
2021/11/19 02:00:59;;;;;;;;;;;;;;;;;;2073713;28;20012;-49
2021/11/19 02:02:01;;;;;;;;;;;;;;;;;;2081707;28;20335;-48
2021/11/19 02:03:02;;;;;;;;;;;;;;;;;;2076062;28;19925;-48
2021/11/19 02:04:03;;;;;;;;;;;;;;;;;;2074593;28;19926;-43
2021/11/19 02:05:04;;;;;;;;;;;;;;;;;;2081840;28;20006;-43
2021/11/19 02:06:05;;;;;;;;;;;;;;;;;;2080856;28;20341;-44
2021/11/19 02:07:06;;;;;;;;;;;;;;;;;;2074576;28;20008;-43
2021/11/19 02:08:07;;;;;;;;;;;;;;;;;;2081742;28;20287;-44
2021/11/19 02:09:07;;;;;;;;;;;;;;;;;;2080089;28;19933;-42
2021/11/19 02:10:10;;;;;;;;;;;;;;;;;;2073703;28;19925;-43
2021/11/19 02:11:10;;;;;;;;;;;;;;;;;;2073528;28;20012;-43
2021/11/19 02:12:11;;;;;;;;;;;;;;;;;;2072320;28;19926;-43
2021/11/19 02:13:12;;;;;;;;;;;;;;;;;;2077718;28;19925;-43
2021/11/19 02:14:13;;;;;;;;;;;;;;;;;;2081845;28;19925;-43
2021/11/19 02:15:14;;;;;;;;;;;;;;;;;;2077094;28;19970;-42
2021/11/19 02:16:14;;;;;;;;;;;;;;;;;;2079126;28;19929;-43
2021/11/19 02:17:15;;;;;;;;;;;;;;;;;;2081597;28;20386;-43
2021/11/19 02:18:16;;;;;;;;;;;;;;;;;;2077170;28;19930;-44
2021/11/19 02:19:17;;;;;;;;;;;;;;;;;;2079021;28;19929;-43
2021/11/19 02:20:18;;;;;;;;;;;;;;;;;;2081653;28;20062;-43
2021/11/19 02:21:19;;;;;;;;;;;;;;;;;;2076947;28;19937;-43
2021/11/19 02:22:20;;;;;;;;;;;;;;;;;;2074844;28;19930;-43
2021/11/19 02:23:20;;;;;;;;;;;;;;;;;;2073567;28;19976;-43
2021/11/19 02:24:21;;;;;;;;;;;;;;;;;;2072361;28;20275;-43
2021/11/19 02:25:22;;;;;;;;;;;;;;;;;;2080030;28;19928;-43
2021/11/19 02:26:23;;;;;;;;;;;;;;;;;;2081650;28;19932;-43
2021/11/19 02:27:24;;;;;;;;;;;;;;;;;;2075392;28;19926;-44
2021/11/19 02:28:25;;;;;;;;;;;;;;;;;;2080694;28;19925;-43
2021/11/19 02:29:25;;;;;;;;;;;;;;;;;;2081577;28;19925;-42
2021/11/19 02:30:27;;;;;;;;;;;;;;;;;;2076933;28;19931;-43
2021/11/19 02:31:27;;;;;;;;;;;;;;;;;;2066176;28;20408;-44
2021/11/19 02:32:28;;;;;;;;;;;;;;;;;;2065277;28;19937;-44
2021/11/19 02:33:29;;;;;;;;;;;;;;;;;;2072324;28;19933;-43
2021/11/19 02:34:30;;;;;;;;;;;;;;;;;;2073182;28;19926;-43
2021/11/19 02:35:31;;;;;;;;;;;;;;;;;;2072950;28;19925;-43
2021/11/19 02:36:32;;;;;;;;;;;;;;;;;;2074196;28;20007;-42
2021/11/19 02:37:32;;;;;;;;;;;;;;;;;;2073276;28;19926;-43
2021/11/19 02:38:33;;;;;;;;;;;;;;;;;;2073358;28;20371;-43
2021/11/19 02:39:34;;;;;;;;;;;;;;;;;;2074043;28;19933;-43
2021/11/19 02:40:35;;;;;;;;;;;;;;;;;;2073370;28;19929;-43
2021/11/19 02:41:36;;;;;;;;;;;;;;;;;;2073434;28;19930;-42
2021/11/19 02:42:38;;;;;;;;;;;;;;;;;;2074121;28;19967;-43
2021/11/19 02:43:39;;;;;;;;;;;;;;;;;;2081456;28;20393;-42
2021/11/19 02:44:40;;;;;;;;;;;;;;;;;;2080370;28;20374;-43
2021/11/19 02:45:40;;;;;;;;;;;;;;;;;;2074579;28;19932;-43
2021/11/19 02:46:41;;;;;;;;;;;;;;;;;;2073387;28;19932;-43
2021/11/19 02:47:42;;;;;;;;;;;;;;;;;;2072753;28;19925;-43
2021/11/19 02:48:43;;;;;;;;;;;;;;;;;;2075951;28;19979;-43
2021/11/19 02:49:44;;;;;;;;;;;;;;;;;;2081384;28;19929;-44
2021/11/19 02:50:45;;;;;;;;;;;;;;;;;;2078579;28;19951;-43
2021/11/19 02:51:47;;;;;;;;;;;;;;;;;;2077348;28;20294;-43
2021/11/19 02:52:47;;;;;;;;;;;;;;;;;;2081310;28;20461;-42
2021/11/19 02:53:48;;;;;;;;;;;;;;;;;;2076872;28;19932;-43
2021/11/19 02:54:49;;;;;;;;;;;;;;;;;;2075872;28;20346;-43
2021/11/19 02:55:50;;;;;;;;;;;;;;;;;;2073132;28;19933;-43
2021/11/19 02:56:51;;;;;;;;;;;;;;;;;;2071960;28;19925;-43
2021/11/19 02:57:51;;;;;;;;;;;;;;;;;;2078678;28;20344;-42
2021/11/19 02:58:52;;;;;;;;;;;;;;;;;;2081516;28;20390;-43
2021/11/19 02:59:53;;;;;;;;;;;;;;;;;;2075859;28;19926;-42
2021/11/19 03:00:54;;;;;;;;;;;;;;;;;;2074655;28;19965;-43
2021/11/19 03:01:55;;;;;;;;;;;;;;;;;;2073339;28;20397;-44
2021/11/19 03:02:56;;;;;;;;;;;;;;;;;;2069280;28;19926;-41
2021/11/19 03:03:57;;;;;;;;;;;;;;;;;;2073089;28;19925;-43
2021/11/19 03:04:58;;;;;;;;;;;;;;;;;;2073104;28;19933;-43
2021/11/19 03:05:58;;;;;;;;;;;;;;;;;;2071520;28;19933;-44
2021/11/19 03:06:59;;;;;;;;;;;;;;;;;;2064939;28;19972;-42
2021/11/19 03:08:00;;;;;;;;;;;;;;;;;;2064968;28;19926;-43
2021/11/19 03:09:01;;;;;;;;;;;;;;;;;;2073644;28;19925;-43
2021/11/19 03:10:03;;;;;;;;;;;;;;;;;;2073124;28;20308;-43
2021/11/19 03:11:04;;;;;;;;;;;;;;;;;;2072695;28;20000;-43
2021/11/19 03:12:04;;;;;;;;;;;;;;;;;;2075072;28;19940;-43
2021/11/19 03:13:05;;;;;;;;;;;;;;;;;;2081252;28;19932;-43
2021/11/19 03:14:06;;;;;;;;;;;;;;;;;;2079956;28;19936;-43
2021/11/19 03:15:07;;;;;;;;;;;;;;;;;;2075559;28;19926;-43
2021/11/19 03:16:08;;;;;;;;;;;;;;;;;;2081298;28;19929;-42
2021/11/19 03:17:09;;;;;;;;;;;;;;;;;;2078926;28;19952;-43
2021/11/19 03:18:11;;;;;;;;;;;;;;;;;;2076536;28;19925;-43
2021/11/19 03:19:12;;;;;;;;;;;;;;;;;;2081338;28;20024;-43
2021/11/19 03:20:13;;;;;;;;;;;;;;;;;;2077373;28;20417;-43
2021/11/19 03:21:15;;;;;;;;;;;;;;;;;;2074580;28;19932;-43
2021/11/19 03:22:18;;;;;;;;;;;;;;;;;;2073005;28;19952;-43
2021/11/19 03:23:19;;;;;;;;;;;;;;;;;;2072181;28;20366;-42
2021/11/19 03:24:20;;;;;;;;;;;;;;;;;;2074919;28;20359;-43
2021/11/19 03:25:21;;;;;;;;;;;;;;;;;;2073012;28;19992;-43
2021/11/19 03:26:22;;;;;;;;;;;;;;;;;;2072264;28;19941;-45
2021/11/19 03:27:24;;;;;;;;;;;;;;;;;;2079240;28;19959;-43
2021/11/19 03:28:25;;;;;;;;;;;;;;;;;;2081149;28;20071;-43
2021/11/19 03:29:25;;;;;;;;;;;;;;;;;;2074223;28;20433;-44
2021/11/19 03:30:26;;;;;;;;;;;;;;;;;;2080117;28;20271;-43
2021/11/19 03:31:27;;;;;;;;;;;;;;;;;;2081315;28;20302;-43
2021/11/19 03:32:28;;;;;;;;;;;;;;;;;;2076406;28;20668;-43
2021/11/19 03:33:29;;;;;;;;;;;;;;;;;;2072893;28;20016;-43
2021/11/19 03:34:29;;;;;;;;;;;;;;;;;;2072976;28;19936;-43
2021/11/19 03:35:30;;;;;;;;;;;;;;;;;;2074090;28;19925;-44
2021/11/19 03:36:31;;;;;;;;;;;;;;;;;;2072959;28;19925;-43
2021/11/19 03:37:32;;;;;;;;;;;;;;;;;;2073038;28;19968;-43
2021/11/19 03:38:33;;;;;;;;;;;;;;;;;;2072801;28;19948;-43
2021/11/19 03:39:34;;;;;;;;;;;;;;;;;;2081056;28;20460;-43
2021/11/19 03:40:35;;;;;;;;;;;;;;;;;;2081139;28;19925;-43
2021/11/19 03:41:36;;;;;;;;;;;;;;;;;;2073997;28;19968;-43
2021/11/19 03:42:37;;;;;;;;;;;;;;;;;;2081078;28;19925;-43
2021/11/19 03:43:38;;;;;;;;;;;;;;;;;;2081068;28;19933;-43
2021/11/19 03:44:38;;;;;;;;;;;;;;;;;;2073024;28;19925;-42
2021/11/19 03:45:39;;;;;;;;;;;;;;;;;;2072981;28;20401;-43
2021/11/19 03:46:40;;;;;;;;;;;;;;;;;;2072709;28;20441;-43
2021/11/19 03:47:41;;;;;;;;;;;;;;;;;;2074712;28;19933;-43
2021/11/19 03:48:42;;;;;;;;;;;;;;;;;;2074530;28;19932;-43
2021/11/19 03:49:43;;;;;;;;;;;;;;;;;;2074004;28;19926;-43
2021/11/19 03:50:44;;;;;;;;;;;;;;;;;;2075894;28;20375;-43
2021/11/19 03:51:45;;;;;;;;;;;;;;;;;;2082506;28;19925;-44
2021/11/19 03:52:45;;;;;;;;;;;;;;;;;;2080019;28;19936;-42
2021/11/19 03:53:46;;;;;;;;;;;;;;;;;;2076215;28;19929;-44
2021/11/19 03:54:47;;;;;;;;;;;;;;;;;;2074346;28;20294;-43
2021/11/19 03:55:49;;;;;;;;;;;;;;;;;;2072658;28;19930;-43
2021/11/19 03:56:50;;;;;;;;;;;;;;;;;;2079557;28;19968;-44
2021/11/19 03:57:50;;;;;;;;;;;;;;;;;;2082662;28;19925;-42
2021/11/19 03:58:51;;;;;;;;;;;;;;;;;;2077968;28;19932;-43
2021/11/19 03:59:52;;;;;;;;;;;;;;;;;;2076638;28;20239;-43
2021/11/19 04:00:53;;;;;;;;;;;;;;;;;;2074316;28;19984;-42
2021/11/19 04:01:54;;;;;;;;;;;;;;;;;;2073325;28;19957;-42
2021/11/19 04:02:55;;;;;;;;;;;;;;;;;;2076367;28;19929;-43
2021/11/19 04:03:56;;;;;;;;;;;;;;;;;;2066177;28;19926;-43
2021/11/19 04:04:57;;;;;;;;;;;;;;;;;;2070135;28;19930;-44
2021/11/19 04:05:57;;;;;;;;;;;;;;;;;;2075370;28;20476;-44
2021/11/19 04:07:00;;;;;;;;;;;;;;;;;;2074322;28;19929;-43
2021/11/19 04:08:00;;;;;;;;;;;;;;;;;;2073063;28;20036;-43
2021/11/19 04:09:01;;;;;;;;;;;;;;;;;;2081554;28;20329;-43
2021/11/19 04:10:02;;;;;;;;;;;;;;;;;;2082465;28;19948;-43
2021/11/19 04:11:03;;;;;;;;;;;;;;;;;;2076010;28;20282;-49
2021/11/19 04:12:04;;;;;;;;;;;;;;;;;;2082231;28;19925;-48
2021/11/19 04:13:06;;;;;;;;;;;;;;;;;;2082283;28;19925;-50
2021/11/19 04:14:06;;;;;;;;;;;;;;;;;;2075716;28;19942;-49
2021/11/19 04:15:07;;;;;;;;;;;;;;;;;;2082228;28;19932;-50
2021/11/19 04:16:08;;;;;;;;;;;;;;;;;;2082417;28;19944;-48
2021/11/19 04:17:10;;;;;;;;;;;;;;;;;;2075381;28;19937;-52
2021/11/19 04:18:11;;;;;;;;;;;;;;;;;;2066116;28;20025;-50
2021/11/19 04:19:11;;;;;;;;;;;;;;;;;;2066237;28;19926;-49
2021/11/19 04:20:12;;;;;;;;;;;;;;;;;;2073365;28;19932;-50
2021/11/19 04:21:13;;;;;;;;;;;;;;;;;;2074462;28;19929;-48
2021/11/19 04:22:14;;;;;;;;;;;;;;;;;;2074237;28;20379;-43
2021/11/19 04:23:15;;;;;;;;;;;;;;;;;;2073581;28;19929;-43
2021/11/19 04:24:16;;;;;;;;;;;;;;;;;;2082331;28;20386;-43
2021/11/19 04:25:20;;;;;;;;;;;;;;;;;;2080773;28;19925;-43
2021/11/19 04:26:21;;;;;;;;;;;;;;;;;;2075304;28;20326;-44
2021/11/19 04:27:21;;;;;;;;;;;;;;;;;;2074160;28;19925;-43
2021/11/19 04:28:22;;;;;;;;;;;;;;;;;;2073122;28;20350;-43
2021/11/19 04:29:23;;;;;;;;;;;;;;;;;;2078282;28;20374;-43
2021/11/19 04:30:24;;;;;;;;;;;;;;;;;;2082227;28;19925;-43
2021/11/19 04:31:25;;;;;;;;;;;;;;;;;;2078377;28;19931;-44
2021/11/19 04:32:26;;;;;;;;;;;;;;;;;;2079298;28;19932;-43
2021/11/19 04:33:26;;;;;;;;;;;;;;;;;;2082228;28;19932;-43
2021/11/19 04:34:27;;;;;;;;;;;;;;;;;;2077794;28;19948;-43
2021/11/19 04:35:30;;;;;;;;;;;;;;;;;;2074385;28;19930;-43
2021/11/19 04:36:31;;;;;;;;;;;;;;;;;;2074122;28;20020;-43
2021/11/19 04:37:31;;;;;;;;;;;;;;;;;;2073011;28;19925;-43
2021/11/19 04:38:32;;;;;;;;;;;;;;;;;;2082217;28;19929;-43
2021/11/19 04:39:33;;;;;;;;;;;;;;;;;;2082128;28;20279;-43
2021/11/19 04:40:34;;;;;;;;;;;;;;;;;;2074319;28;19933;-43
2021/11/19 04:41:35;;;;;;;;;;;;;;;;;;2082075;28;19933;-43
2021/11/19 04:42:36;;;;;;;;;;;;;;;;;;2082286;28;19978;-44
2021/11/19 04:43:37;;;;;;;;;;;;;;;;;;2075210;28;19925;-44
2021/11/19 04:44:37;;;;;;;;;;;;;;;;;;2082079;28;19925;-43
2021/11/19 04:45:38;;;;;;;;;;;;;;;;;;2082246;28;19979;-45
2021/11/19 04:46:40;;;;;;;;;;;;;;;;;;2075102;28;19925;-43
2021/11/19 04:47:41;;;;;;;;;;;;;;;;;;2082258;28;20012;-43
2021/11/19 04:48:42;;;;;;;;;;;;;;;;;;2081269;28;20345;-43
2021/11/19 04:49:42;;;;;;;;;;;;;;;;;;2076031;28;19933;-43
2021/11/19 04:50:43;;;;;;;;;;;;;;;;;;2082114;28;19972;-43
2021/11/19 04:51:45;;;;;;;;;;;;;;;;;;2080930;28;19937;-44
2021/11/19 04:52:46;;;;;;;;;;;;;;;;;;2074340;28;19994;-43
2021/11/19 04:53:47;;;;;;;;;;;;;;;;;;2082257;28;19925;-43
2021/11/19 04:54:48;;;;;;;;;;;;;;;;;;2079733;28;20271;-43
2021/11/19 04:55:49;;;;;;;;;;;;;;;;;;2077483;28;19932;-43
2021/11/19 04:56:49;;;;;;;;;;;;;;;;;;2082037;28;19956;-43
2021/11/19 04:57:50;;;;;;;;;;;;;;;;;;2078584;28;19925;-51
2021/11/19 04:58:51;;;;;;;;;;;;;;;;;;2078852;28;20031;-48
2021/11/19 04:59:52;;;;;;;;;;;;;;;;;;2082077;28;19926;-51
2021/11/19 05:00:53;;;;;;;;;;;;;;;;;;2077702;28;20421;-49
2021/11/19 05:01:54;;;;;;;;;;;;;;;;;;2076230;28;19925;-48
2021/11/19 05:02:55;;;;;;;;;;;;;;;;;;2072450;28;20401;-51
2021/11/19 05:03:56;;;;;;;;;;;;;;;;;;2072890;28;19929;-49
2021/11/19 05:04:57;;;;;;;;;;;;;;;;;;2075840;28;20007;-43
2021/11/19 05:05:57;;;;;;;;;;;;;;;;;;2073897;28;19999;-43
2021/11/19 05:06:58;;;;;;;;;;;;;;;;;;2073574;28;19934;-51
2021/11/19 05:07:59;;;;;;;;;;;;;;;;;;2075253;28;19925;-44
2021/11/19 05:09:00;;;;;;;;;;;;;;;;;;2073919;28;20407;-43
2021/11/19 05:10:01;;;;;;;;;;;;;;;;;;2072695;28;20290;-43
2021/11/19 05:11:01;;;;;;;;;;;;;;;;;;2080926;28;20298;-44
2021/11/19 05:12:02;;;;;;;;;;;;;;;;;;2082085;28;19972;-44
2021/11/19 05:13:04;;;;;;;;;;;;;;;;;;2075485;28;19971;-44
2021/11/19 05:14:05;;;;;;;;;;;;;;;;;;2081473;28;20363;-44
2021/11/19 05:15:06;;;;;;;;;;;;;;;;;;2082115;28;20028;-43
2021/11/19 05:16:07;;;;;;;;;;;;;;;;;;2076694;28;19936;-43
2021/11/19 05:17:08;;;;;;;;;;;;;;;;;;2073770;28;20021;-44
2021/11/19 05:18:09;;;;;;;;;;;;;;;;;;2073750;28;19933;-43
2021/11/19 05:19:10;;;;;;;;;;;;;;;;;;2074610;28;20370;-43
2021/11/19 05:20:11;;;;;;;;;;;;;;;;;;2073808;28;19964;-44
2021/11/19 05:21:12;;;;;;;;;;;;;;;;;;2073792;28;20295;-43
2021/11/19 05:22:13;;;;;;;;;;;;;;;;;;2074447;28;19939;-43
2021/11/19 05:23:14;;;;;;;;;;;;;;;;;;2073738;28;19926;-46
2021/11/19 05:24:15;;;;;;;;;;;;;;;;;;2074182;28;19930;-43
2021/11/19 05:25:16;;;;;;;;;;;;;;;;;;2073605;28;20004;-43
2021/11/19 05:26:16;;;;;;;;;;;;;;;;;;2081896;28;19929;-44
2021/11/19 05:27:17;;;;;;;;;;;;;;;;;;2081021;28;20386;-43
2021/11/19 05:28:18;;;;;;;;;;;;;;;;;;2073050;28;19968;-45
2021/11/19 05:29:19;;;;;;;;;;;;;;;;;;2073818;28;19975;-44
2021/11/19 05:30:20;;;;;;;;;;;;;;;;;;2072589;28;19932;-44
2021/11/19 05:31:21;;;;;;;;;;;;;;;;;;2079240;28;20333;-43
2021/11/19 05:32:23;;;;;;;;;;;;;;;;;;2082041;28;20345;-43
2021/11/19 05:33:23;;;;;;;;;;;;;;;;;;2076746;28;20012;-43
2021/11/19 05:34:24;;;;;;;;;;;;;;;;;;2080190;28;19932;-48
2021/11/19 05:35:25;;;;;;;;;;;;;;;;;;2082086;28;19925;-44
2021/11/19 05:36:26;;;;;;;;;;;;;;;;;;2076081;28;19926;-45
2021/11/19 05:37:27;;;;;;;;;;;;;;;;;;2074576;28;19926;-46
2021/11/19 05:38:29;;;;;;;;;;;;;;;;;;2073818;28;20330;-43
2021/11/19 05:39:30;;;;;;;;;;;;;;;;;;2071471;28;19968;-43
2021/11/19 05:40:30;;;;;;;;;;;;;;;;;;2081366;28;20433;-45
2021/11/19 05:41:31;;;;;;;;;;;;;;;;;;2081845;28;19925;-43
2021/11/19 05:42:32;;;;;;;;;;;;;;;;;;2073674;28;19925;-44
2021/11/19 05:43:33;;;;;;;;;;;;;;;;;;2081663;28;19961;-46
2021/11/19 05:44:35;;;;;;;;;;;;;;;;;;2082010;28;19925;-45
2021/11/19 05:45:36;;;;;;;;;;;;;;;;;;2075068;28;20024;-45
2021/11/19 05:46:40;;;;;;;;;;;;;;;;;;2073540;28;19932;-46
2021/11/19 05:47:41;;;;;;;;;;;;;;;;;;2073531;28;20016;-50
2021/11/19 05:48:42;;;;;;;;;;;;;;;;;;2073459;28;19960;-49
2021/11/19 05:49:43;;;;;;;;;;;;;;;;;;2081882;28;19925;-50
2021/11/19 05:50:44;;;;;;;;;;;;;;;;;;2081252;28;19925;-50
2021/11/19 05:51:45;;;;;;;;;;;;;;;;;;2075411;28;19933;-52
2021/11/19 05:52:45;;;;;;;;;;;;;;;;;;2081810;28;20391;-50
2021/11/19 05:53:46;;;;;;;;;;;;;;;;;;2080509;28;19925;-49
2021/11/19 05:54:47;;;;;;;;;;;;;;;;;;2075122;28;19931;-51
2021/11/19 05:55:48;;;;;;;;;;;;;;;;;;2081840;28;20374;-49
2021/11/19 05:56:49;;;;;;;;;;;;;;;;;;2079548;28;19929;-50
2021/11/19 05:57:50;;;;;;;;;;;;;;;;;;2075112;28;19932;-48
2021/11/19 05:58:50;;;;;;;;;;;;;;;;;;2073643;28;20028;-47
2021/11/19 05:59:51;;;;;;;;;;;;;;;;;;2072413;28;19925;-45
2021/11/19 06:00:52;;;;;;;;;;;;;;;;;;2074626;28;20404;-46
2021/11/19 06:01:53;;;;;;;;;;;;;;;;;;2073541;28;19925;-46
2021/11/19 06:02:54;;;;;;;;;;;;;;;;;;2070455;28;19925;-46
2021/11/19 06:03:55;;;;;;;;;;;;;;;;;;2078984;28;20382;-46
2021/11/19 06:04:55;;;;;;;;;;;;;;;;;;2081784;28;19925;-47
2021/11/19 06:05:56;;;;;;;;;;;;;;;;;;2077259;28;19926;-46
2021/11/19 06:06:57;;;;;;;;;;;;;;;;;;2075353;28;19941;-46
2021/11/19 06:07:58;;;;;;;;;;;;;;;;;;2073884;28;19930;-46
2021/11/19 06:09:00;;;;;;;;;;;;;;;;;;2071575;28;19947;-46
2021/11/19 06:10:02;;;;;;;;;;;;;;;;;;2079296;28;19995;-48
2021/11/19 06:11:03;;;;;;;;;;;;;;;;;;2081638;28;20108;-48
2021/11/19 06:12:03;;;;;;;;;;;;;;;;;;2077087;28;20029;-43
2021/11/19 06:13:04;;;;;;;;;;;;;;;;;;2074161;28;19926;-42
2021/11/19 06:14:05;;;;;;;;;;;;;;;;;;2073713;28;20318;-44
2021/11/19 06:15:06;;;;;;;;;;;;;;;;;;2072432;28;19925;-44
2021/11/19 06:16:07;;;;;;;;;;;;;;;;;;2081227;28;19932;-43
2021/11/19 06:17:08;;;;;;;;;;;;;;;;;;2081627;28;20272;-43
2021/11/19 06:18:08;;;;;;;;;;;;;;;;;;2074691;28;19986;-42
2021/11/19 06:19:09;;;;;;;;;;;;;;;;;;2081413;28;19935;-43
2021/11/19 06:20:10;;;;;;;;;;;;;;;;;;2081675;28;19925;-43
2021/11/19 06:21:11;;;;;;;;;;;;;;;;;;2073539;28;19932;-44
2021/11/19 06:22:12;;;;;;;;;;;;;;;;;;2081662;28;20420;-46
2021/11/19 06:23:13;;;;;;;;;;;;;;;;;;2081835;28;19979;-43
2021/11/19 06:24:13;;;;;;;;;;;;;;;;;;2074170;28;20302;-43
2021/11/19 06:25:14;;;;;;;;;;;;;;;;;;2073303;28;19984;-43
2021/11/19 06:26:15;;;;;;;;;;;;;;;;;;2073370;28;19948;-43
2021/11/19 06:27:19;;;;;;;;;;;;;;;;;;2074335;28;19961;-43
2021/11/19 06:28:20;;;;;;;;;;;;;;;;;;2073360;28;20020;-44
2021/11/19 06:29:20;;;;;;;;;;;;;;;;;;2072867;28;19925;-43
2021/11/19 06:30:21;;;;;;;;;;;;;;;;;;2075500;28;19933;-43
2021/11/19 06:31:22;;;;;;;;;;;;;;;;;;2081461;28;19925;-43
2021/11/19 06:32:23;;;;;;;;;;;;;;;;;;2079846;28;19934;-44
2021/11/19 06:33:27;;;;;;;;;;;;;;;;;;2077080;28;20426;-43
2021/11/19 06:34:28;;;;;;;;;;;;;;;;;;2081437;28;19979;-44
2021/11/19 06:35:29;;;;;;;;;;;;;;;;;;2077860;28;19937;-45
2021/11/19 06:36:31;;;;;;;;;;;;;;;;;;2078330;28;19936;-44
2021/11/19 06:37:32;;;;;;;;;;;;;;;;;;2081500;28;19964;-44
2021/11/19 06:38:32;;;;;;;;;;;;;;;;;;2076936;28;19925;-44
2021/11/19 06:39:33;;;;;;;;;;;;;;;;;;2078704;28;19931;-44
2021/11/19 06:40:35;;;;;;;;;;;;;;;;;;2081462;28;19994;-44
2021/11/19 06:41:37;;;;;;;;;;;;;;;;;;2076912;28;19948;-44
2021/11/19 06:42:37;;;;;;;;;;;;;;;;;;2074695;28;19937;-44
2021/11/19 06:43:38;;;;;;;;;;;;;;;;;;2073339;28;19929;-44
2021/11/19 06:44:40;;;;;;;;;;;;;;;;;;2073559;28;20481;-44
2021/11/19 06:45:41;;;;;;;;;;;;;;;;;;2072272;28;19925;-48
2021/11/19 06:46:42;;;;;;;;;;;;;;;;;;2073264;28;19926;-47
2021/11/19 06:47:43;;;;;;;;;;;;;;;;;;2073782;28;19933;-48
2021/11/19 06:48:43;;;;;;;;;;;;;;;;;;2073423;28;19933;-47
2021/11/19 06:49:44;;;;;;;;;;;;;;;;;;2073222;28;19926;-47
2021/11/19 06:50:45;;;;;;;;;;;;;;;;;;2071116;28;19926;-48
2021/11/19 06:51:46;;;;;;;;;;;;;;;;;;2081230;28;19932;-49
2021/11/19 06:52:47;;;;;;;;;;;;;;;;;;2081429;28;20051;-47
2021/11/19 06:53:48;;;;;;;;;;;;;;;;;;2074343;28;19929;-48
2021/11/19 06:54:49;;;;;;;;;;;;;;;;;;2081139;28;19929;-47
2021/11/19 06:55:50;;;;;;;;;;;;;;;;;;2081538;28;19975;-45